sensor_id;sensor_type;location;lat;lon;timestamp;P1;durP1;ratioP1;P2;durP2;ratioP2
4742;SDS011;24293;48.154;7.748;2023-05-09T00:00:21;5.67;;;3.80;;
4742;SDS011;24293;48.154;7.748;2023-05-09T00:02:48;6.73;;;3.33;;
4742;SDS011;24293;48.154;7.748;2023-05-09T00:05:15;5.67;;;3.60;;
4742;SDS011;24293;48.154;7.748;2023-05-09T00:07:43;5.70;;;3.57;;
4742;SDS011;24293;48.154;7.748;2023-05-09T00:10:09;9.67;;;3.53;;
4742;SDS011;24293;48.154;7.748;2023-05-09T00:12:36;9.33;;;3.63;;
4742;SDS011;24293;48.154;7.748;2023-05-09T00:15:02;4.57;;;3.40;;
4742;SDS011;24293;48.154;7.748;2023-05-09T00:17:32;6.37;;;3.33;;
4742;SDS011;24293;48.154;7.748;2023-05-09T00:19:58;5.77;;;3.30;;
4742;SDS011;24293;48.154;7.748;2023-05-09T00:22:26;9.07;;;3.20;;
4742;SDS011;24293;48.154;7.748;2023-05-09T00:24:54;3.40;;;3.03;;
4742;SDS011;24293;48.154;7.748;2023-05-09T00:27:20;5.03;;;3.80;;
4742;SDS011;24293;48.154;7.748;2023-05-09T00:29:47;5.23;;;3.10;;
4742;SDS011;24293;48.154;7.748;2023-05-09T00:32:13;3.93;;;3.27;;
4742;SDS011;24293;48.154;7.748;2023-05-09T00:34:40;6.10;;;2.90;;
4742;SDS011;24293;48.154;7.748;2023-05-09T00:37:06;9.20;;;3.73;;
4742;SDS011;24293;48.154;7.748;2023-05-09T00:39:32;6.60;;;4.00;;
4742;SDS011;24293;48.154;7.748;2023-05-09T00:42:00;4.00;;;3.47;;
4742;SDS011;24293;48.154;7.748;2023-05-09T00:44:27;5.93;;;4.33;;
4742;SDS011;24293;48.154;7.748;2023-05-09T00:46:54;4.87;;;3.83;;
4742;SDS011;24293;48.154;7.748;2023-05-09T00:49:20;3.90;;;3.50;;
4742;SDS011;24293;48.154;7.748;2023-05-09T00:51:47;6.13;;;3.80;;
4742;SDS011;24293;48.154;7.748;2023-05-09T00:54:14;8.13;;;3.33;;
4742;SDS011;24293;48.154;7.748;2023-05-09T00:56:40;6.53;;;3.97;;
4742;SDS011;24293;48.154;7.748;2023-05-09T00:59:08;4.83;;;3.40;;
4742;SDS011;24293;48.154;7.748;2023-05-09T01:01:34;5.80;;;4.20;;
4742;SDS011;24293;48.154;7.748;2023-05-09T01:04:01;5.13;;;4.60;;
4742;SDS011;24293;48.154;7.748;2023-05-09T01:06:30;8.47;;;4.90;;
4742;SDS011;24293;48.154;7.748;2023-05-09T01:09:00;8.83;;;4.90;;
4742;SDS011;24293;48.154;7.748;2023-05-09T01:11:28;6.40;;;4.80;;
4742;SDS011;24293;48.154;7.748;2023-05-09T01:13:59;8.77;;;4.73;;
4742;SDS011;24293;48.154;7.748;2023-05-09T01:16:33;8.30;;;5.20;;
4742;SDS011;24293;48.154;7.748;2023-05-09T01:19:01;8.07;;;5.60;;
4742;SDS011;24293;48.154;7.748;2023-05-09T01:21:33;9.87;;;5.33;;
4742;SDS011;24293;48.154;7.748;2023-05-09T01:24:10;8.33;;;5.10;;
4742;SDS011;24293;48.154;7.748;2023-05-09T01:26:42;5.93;;;4.63;;
4742;SDS011;24293;48.154;7.748;2023-05-09T01:29:24;6.80;;;4.40;;
4742;SDS011;24293;48.154;7.748;2023-05-09T01:31:53;5.00;;;4.33;;
4742;SDS011;24293;48.154;7.748;2023-05-09T01:34:20;9.07;;;4.83;;
4742;SDS011;24293;48.154;7.748;2023-05-09T01:36:47;8.40;;;4.97;;
4742;SDS011;24293;48.154;7.748;2023-05-09T01:39:15;6.90;;;5.40;;
4742;SDS011;24293;48.154;7.748;2023-05-09T01:41:42;9.60;;;4.90;;
4742;SDS011;24293;48.154;7.748;2023-05-09T01:44:10;7.10;;;5.07;;
4742;SDS011;24293;48.154;7.748;2023-05-09T01:46:38;7.23;;;5.50;;
4742;SDS011;24293;48.154;7.748;2023-05-09T01:49:05;7.10;;;4.20;;
4742;SDS011;24293;48.154;7.748;2023-05-09T01:51:33;6.47;;;4.90;;
4742;SDS011;24293;48.154;7.748;2023-05-09T01:54:01;6.70;;;5.27;;
4742;SDS011;24293;48.154;7.748;2023-05-09T01:56:28;6.80;;;4.97;;
4742;SDS011;24293;48.154;7.748;2023-05-09T01:58:56;5.20;;;4.20;;
4742;SDS011;24293;48.154;7.748;2023-05-09T02:01:23;5.33;;;4.57;;
4742;SDS011;24293;48.154;7.748;2023-05-09T02:03:51;9.37;;;5.27;;
4742;SDS011;24293;48.154;7.748;2023-05-09T02:06:19;8.33;;;4.60;;
4742;SDS011;24293;48.154;7.748;2023-05-09T02:08:47;7.50;;;4.77;;
4742;SDS011;24293;48.154;7.748;2023-05-09T02:11:14;9.23;;;4.93;;
4742;SDS011;24293;48.154;7.748;2023-05-09T02:13:40;10.03;;;3.60;;
4742;SDS011;24293;48.154;7.748;2023-05-09T02:16:07;5.47;;;3.90;;
4742;SDS011;24293;48.154;7.748;2023-05-09T02:18:34;4.90;;;3.50;;
4742;SDS011;24293;48.154;7.748;2023-05-09T02:21:02;7.60;;;4.97;;
4742;SDS011;24293;48.154;7.748;2023-05-09T02:23:29;7.80;;;3.97;;
4742;SDS011;24293;48.154;7.748;2023-05-09T02:25:55;8.13;;;4.73;;
4742;SDS011;24293;48.154;7.748;2023-05-09T02:28:22;7.30;;;4.83;;
4742;SDS011;24293;48.154;7.748;2023-05-09T02:30:50;5.50;;;4.23;;
4742;SDS011;24293;48.154;7.748;2023-05-09T02:33:18;7.77;;;4.97;;
4742;SDS011;24293;48.154;7.748;2023-05-09T02:35:44;6.80;;;4.60;;
4742;SDS011;24293;48.154;7.748;2023-05-09T02:38:12;6.53;;;4.07;;
4742;SDS011;24293;48.154;7.748;2023-05-09T02:40:40;12.63;;;4.13;;
4742;SDS011;24293;48.154;7.748;2023-05-09T02:43:07;9.80;;;4.60;;
4742;SDS011;24293;48.154;7.748;2023-05-09T02:45:33;7.33;;;4.13;;
4742;SDS011;24293;48.154;7.748;2023-05-09T02:48:00;5.80;;;4.67;;
4742;SDS011;24293;48.154;7.748;2023-05-09T02:50:27;4.57;;;3.83;;
4742;SDS011;24293;48.154;7.748;2023-05-09T02:52:53;5.17;;;2.90;;
4742;SDS011;24293;48.154;7.748;2023-05-09T02:55:21;5.00;;;4.17;;
4742;SDS011;24293;48.154;7.748;2023-05-09T02:57:47;5.47;;;3.00;;
4742;SDS011;24293;48.154;7.748;2023-05-09T03:00:15;12.37;;;3.17;;
4742;SDS011;24293;48.154;7.748;2023-05-09T03:02:42;3.90;;;2.90;;
4742;SDS011;24293;48.154;7.748;2023-05-09T03:05:09;5.27;;;3.70;;
4742;SDS011;24293;48.154;7.748;2023-05-09T03:07:35;7.93;;;4.50;;
4742;SDS011;24293;48.154;7.748;2023-05-09T03:10:02;5.63;;;4.60;;
4742;SDS011;24293;48.154;7.748;2023-05-09T03:12:30;8.60;;;4.93;;
4742;SDS011;24293;48.154;7.748;2023-05-09T03:14:56;8.50;;;5.70;;
4742;SDS011;24293;48.154;7.748;2023-05-09T03:17:23;6.10;;;4.97;;
4742;SDS011;24293;48.154;7.748;2023-05-09T03:19:49;11.80;;;5.33;;
4742;SDS011;24293;48.154;7.748;2023-05-09T03:22:16;7.20;;;5.03;;
4742;SDS011;24293;48.154;7.748;2023-05-09T03:24:42;6.87;;;5.57;;
4742;SDS011;24293;48.154;7.748;2023-05-09T03:27:09;10.93;;;5.60;;
4742;SDS011;24293;48.154;7.748;2023-05-09T03:29:36;8.63;;;5.00;;
4742;SDS011;24293;48.154;7.748;2023-05-09T03:32:03;7.30;;;5.60;;
4742;SDS011;24293;48.154;7.748;2023-05-09T03:34:30;5.60;;;4.73;;
4742;SDS011;24293;48.154;7.748;2023-05-09T03:36:56;9.30;;;5.90;;
4742;SDS011;24293;48.154;7.748;2023-05-09T03:39:23;12.30;;;6.27;;
4742;SDS011;24293;48.154;7.748;2023-05-09T03:41:49;8.87;;;6.17;;
4742;SDS011;24293;48.154;7.748;2023-05-09T03:44:16;10.27;;;6.70;;
4742;SDS011;24293;48.154;7.748;2023-05-09T03:46:44;7.33;;;6.30;;
4742;SDS011;24293;48.154;7.748;2023-05-09T03:49:11;13.07;;;6.30;;
4742;SDS011;24293;48.154;7.748;2023-05-09T03:51:38;8.13;;;5.93;;
4742;SDS011;24293;48.154;7.748;2023-05-09T03:54:04;10.60;;;5.40;;
4742;SDS011;24293;48.154;7.748;2023-05-09T03:56:31;7.00;;;5.83;;
4742;SDS011;24293;48.154;7.748;2023-05-09T03:58:57;10.60;;;5.57;;
4742;SDS011;24293;48.154;7.748;2023-05-09T04:01:24;11.67;;;6.20;;
4742;SDS011;24293;48.154;7.748;2023-05-09T04:03:52;13.23;;;6.00;;
4742;SDS011;24293;48.154;7.748;2023-05-09T04:06:18;10.87;;;6.33;;
4742;SDS011;24293;48.154;7.748;2023-05-09T04:08:45;20.57;;;6.73;;
4742;SDS011;24293;48.154;7.748;2023-05-09T04:11:11;8.07;;;5.93;;
4742;SDS011;24293;48.154;7.748;2023-05-09T04:13:38;9.20;;;6.60;;
4742;SDS011;24293;48.154;7.748;2023-05-09T04:16:04;11.80;;;6.40;;
4742;SDS011;24293;48.154;7.748;2023-05-09T04:18:31;7.50;;;5.77;;
4742;SDS011;24293;48.154;7.748;2023-05-09T04:20:59;8.40;;;6.03;;
4742;SDS011;24293;48.154;7.748;2023-05-09T04:23:25;8.40;;;5.40;;
4742;SDS011;24293;48.154;7.748;2023-05-09T04:25:52;11.40;;;6.20;;
4742;SDS011;24293;48.154;7.748;2023-05-09T04:28:21;6.13;;;4.87;;
4742;SDS011;24293;48.154;7.748;2023-05-09T04:30:47;6.40;;;5.23;;
4742;SDS011;24293;48.154;7.748;2023-05-09T04:33:14;11.13;;;5.30;;
4742;SDS011;24293;48.154;7.748;2023-05-09T04:35:41;6.50;;;5.73;;
4742;SDS011;24293;48.154;7.748;2023-05-09T04:38:09;8.77;;;5.37;;
4742;SDS011;24293;48.154;7.748;2023-05-09T04:40:35;7.97;;;5.60;;
4742;SDS011;24293;48.154;7.748;2023-05-09T04:43:02;9.90;;;6.40;;
4742;SDS011;24293;48.154;7.748;2023-05-09T04:45:28;8.03;;;6.10;;
4742;SDS011;24293;48.154;7.748;2023-05-09T04:47:54;6.57;;;4.83;;
4742;SDS011;24293;48.154;7.748;2023-05-09T04:50:21;9.03;;;5.00;;
4742;SDS011;24293;48.154;7.748;2023-05-09T04:52:47;10.03;;;4.90;;
4742;SDS011;24293;48.154;7.748;2023-05-09T04:55:15;6.07;;;4.83;;
4742;SDS011;24293;48.154;7.748;2023-05-09T04:57:42;6.43;;;4.40;;
4742;SDS011;24293;48.154;7.748;2023-05-09T05:00:09;6.10;;;4.73;;
4742;SDS011;24293;48.154;7.748;2023-05-09T05:02:36;9.47;;;5.07;;
4742;SDS011;24293;48.154;7.748;2023-05-09T05:05:03;6.30;;;5.10;;
4742;SDS011;24293;48.154;7.748;2023-05-09T05:07:29;11.53;;;5.30;;
4742;SDS011;24293;48.154;7.748;2023-05-09T05:09:56;9.80;;;4.77;;
4742;SDS011;24293;48.154;7.748;2023-05-09T05:12:24;5.23;;;4.40;;
4742;SDS011;24293;48.154;7.748;2023-05-09T05:14:50;8.30;;;5.20;;
4742;SDS011;24293;48.154;7.748;2023-05-09T05:17:17;8.67;;;5.17;;
4742;SDS011;24293;48.154;7.748;2023-05-09T05:19:43;8.20;;;4.90;;
4742;SDS011;24293;48.154;7.748;2023-05-09T05:22:10;6.87;;;5.00;;
4742;SDS011;24293;48.154;7.748;2023-05-09T05:24:37;8.10;;;5.93;;
4742;SDS011;24293;48.154;7.748;2023-05-09T05:27:03;7.43;;;5.10;;
4742;SDS011;24293;48.154;7.748;2023-05-09T05:29:31;7.20;;;4.80;;
4742;SDS011;24293;48.154;7.748;2023-05-09T05:31:58;6.37;;;5.50;;
4742;SDS011;24293;48.154;7.748;2023-05-09T05:34:24;6.70;;;5.30;;
4742;SDS011;24293;48.154;7.748;2023-05-09T05:36:51;7.40;;;5.53;;
4742;SDS011;24293;48.154;7.748;2023-05-09T05:39:17;5.47;;;4.00;;
4742;SDS011;24293;48.154;7.748;2023-05-09T05:41:44;7.60;;;5.10;;
4742;SDS011;24293;48.154;7.748;2023-05-09T05:44:10;6.90;;;5.30;;
4742;SDS011;24293;48.154;7.748;2023-05-09T05:46:38;9.57;;;4.77;;
4742;SDS011;24293;48.154;7.748;2023-05-09T05:49:05;8.70;;;6.27;;
4742;SDS011;24293;48.154;7.748;2023-05-09T05:51:31;16.80;;;5.50;;
4742;SDS011;24293;48.154;7.748;2023-05-09T05:53:58;6.17;;;4.63;;
4742;SDS011;24293;48.154;7.748;2023-05-09T05:56:24;8.00;;;4.23;;
4742;SDS011;24293;48.154;7.748;2023-05-09T05:58:51;6.20;;;3.80;;
4742;SDS011;24293;48.154;7.748;2023-05-09T06:01:18;12.30;;;4.37;;
4742;SDS011;24293;48.154;7.748;2023-05-09T06:03:46;4.87;;;3.73;;
4742;SDS011;24293;48.154;7.748;2023-05-09T06:06:18;4.83;;;3.30;;
4742;SDS011;24293;48.154;7.748;2023-05-09T06:08:45;5.40;;;3.60;;
4742;SDS011;24293;48.154;7.748;2023-05-09T06:11:14;5.30;;;3.43;;
4742;SDS011;24293;48.154;7.748;2023-05-09T06:13:40;7.60;;;3.73;;
4742;SDS011;24293;48.154;7.748;2023-05-09T06:16:07;6.40;;;4.33;;
4742;SDS011;24293;48.154;7.748;2023-05-09T06:18:33;7.50;;;4.70;;
4742;SDS011;24293;48.154;7.748;2023-05-09T06:21:03;6.03;;;3.77;;
4742;SDS011;24293;48.154;7.748;2023-05-09T06:23:29;4.90;;;4.40;;
4742;SDS011;24293;48.154;7.748;2023-05-09T06:25:56;5.90;;;5.00;;
4742;SDS011;24293;48.154;7.748;2023-05-09T06:28:22;5.63;;;4.63;;
4742;SDS011;24293;48.154;7.748;2023-05-09T06:30:49;6.40;;;4.97;;
4742;SDS011;24293;48.154;7.748;2023-05-09T06:33:15;8.33;;;4.20;;
4742;SDS011;24293;48.154;7.748;2023-05-09T06:35:42;6.30;;;4.43;;
4742;SDS011;24293;48.154;7.748;2023-05-09T06:38:10;4.37;;;3.70;;
4742;SDS011;24293;48.154;7.748;2023-05-09T06:40:36;8.63;;;3.47;;
4742;SDS011;24293;48.154;7.748;2023-05-09T06:43:03;4.80;;;3.10;;
4742;SDS011;24293;48.154;7.748;2023-05-09T06:45:29;13.80;;;4.63;;
4742;SDS011;24293;48.154;7.748;2023-05-09T06:47:55;7.93;;;4.00;;
4742;SDS011;24293;48.154;7.748;2023-05-09T06:50:22;5.90;;;3.83;;
4742;SDS011;24293;48.154;7.748;2023-05-09T06:52:48;4.20;;;3.60;;
4742;SDS011;24293;48.154;7.748;2023-05-09T06:55:16;6.30;;;4.03;;
4742;SDS011;24293;48.154;7.748;2023-05-09T06:57:43;5.00;;;3.37;;
4742;SDS011;24293;48.154;7.748;2023-05-09T07:00:09;5.20;;;3.40;;
4742;SDS011;24293;48.154;7.748;2023-05-09T07:02:36;4.43;;;2.90;;
4742;SDS011;24293;48.154;7.748;2023-05-09T07:05:06;8.10;;;4.00;;
4742;SDS011;24293;48.154;7.748;2023-05-09T07:07:32;5.63;;;4.13;;
4742;SDS011;24293;48.154;7.748;2023-05-09T07:09:59;5.50;;;4.20;;
4742;SDS011;24293;48.154;7.748;2023-05-09T07:12:30;7.30;;;3.60;;
4742;SDS011;24293;48.154;7.748;2023-05-09T07:14:57;5.73;;;4.90;;
4742;SDS011;24293;48.154;7.748;2023-05-09T07:17:24;9.30;;;4.73;;
4742;SDS011;24293;48.154;7.748;2023-05-09T07:19:50;4.83;;;3.73;;
4742;SDS011;24293;48.154;7.748;2023-05-09T07:22:17;5.00;;;3.97;;
4742;SDS011;24293;48.154;7.748;2023-05-09T07:24:43;5.10;;;3.80;;
4742;SDS011;24293;48.154;7.748;2023-05-09T07:27:10;5.73;;;4.57;;
4742;SDS011;24293;48.154;7.748;2023-05-09T07:29:38;4.63;;;3.90;;
4742;SDS011;24293;48.154;7.748;2023-05-09T07:32:04;5.23;;;4.17;;
4742;SDS011;24293;48.154;7.748;2023-05-09T07:34:31;6.83;;;5.20;;
4742;SDS011;24293;48.154;7.748;2023-05-09T07:36:57;12.80;;;4.37;;
4742;SDS011;24293;48.154;7.748;2023-05-09T07:39:24;8.23;;;4.67;;
4742;SDS011;24293;48.154;7.748;2023-05-09T07:41:51;7.30;;;4.63;;
4742;SDS011;24293;48.154;7.748;2023-05-09T07:44:17;6.13;;;4.40;;
4742;SDS011;24293;48.154;7.748;2023-05-09T07:46:45;8.33;;;5.37;;
4742;SDS011;24293;48.154;7.748;2023-05-09T07:49:12;7.57;;;5.00;;
4742;SDS011;24293;48.154;7.748;2023-05-09T07:51:39;5.27;;;4.33;;
4742;SDS011;24293;48.154;7.748;2023-05-09T07:54:05;7.83;;;4.80;;
4742;SDS011;24293;48.154;7.748;2023-05-09T07:56:34;9.47;;;4.30;;
4742;SDS011;24293;48.154;7.748;2023-05-09T07:59:00;12.63;;;5.10;;
4742;SDS011;24293;48.154;7.748;2023-05-09T08:01:27;8.20;;;5.10;;
4742;SDS011;24293;48.154;7.748;2023-05-09T08:03:55;6.73;;;4.77;;
4742;SDS011;24293;48.154;7.748;2023-05-09T08:06:21;12.33;;;5.90;;
4742;SDS011;24293;48.154;7.748;2023-05-09T08:08:48;7.20;;;5.03;;
4742;SDS011;24293;48.154;7.748;2023-05-09T08:11:15;5.70;;;4.13;;
4742;SDS011;24293;48.154;7.748;2023-05-09T08:13:41;8.30;;;5.00;;
4742;SDS011;24293;48.154;7.748;2023-05-09T08:16:08;6.60;;;4.80;;
4742;SDS011;24293;48.154;7.748;2023-05-09T08:18:35;6.03;;;4.97;;
4742;SDS011;24293;48.154;7.748;2023-05-09T08:21:03;8.70;;;4.70;;
4742;SDS011;24293;48.154;7.748;2023-05-09T08:23:30;7.87;;;5.30;;
4742;SDS011;24293;48.154;7.748;2023-05-09T08:25:57;5.50;;;4.87;;
4742;SDS011;24293;48.154;7.748;2023-05-09T08:28:26;7.23;;;5.50;;
4742;SDS011;24293;48.154;7.748;2023-05-09T08:30:54;10.30;;;4.50;;
4742;SDS011;24293;48.154;7.748;2023-05-09T08:33:20;7.77;;;5.10;;
4742;SDS011;24293;48.154;7.748;2023-05-09T08:35:49;8.33;;;5.37;;
4742;SDS011;24293;48.154;7.748;2023-05-09T08:38:17;7.50;;;5.47;;
4742;SDS011;24293;48.154;7.748;2023-05-09T08:40:43;5.80;;;4.60;;
4742;SDS011;24293;48.154;7.748;2023-05-09T08:43:10;6.77;;;5.13;;
4742;SDS011;24293;48.154;7.748;2023-05-09T08:45:38;7.90;;;5.03;;
4742;SDS011;24293;48.154;7.748;2023-05-09T08:48:06;7.50;;;5.13;;
4742;SDS011;24293;48.154;7.748;2023-05-09T08:50:33;7.03;;;5.10;;
4742;SDS011;24293;48.154;7.748;2023-05-09T08:53:00;6.40;;;4.70;;
4742;SDS011;24293;48.154;7.748;2023-05-09T08:55:28;7.83;;;4.67;;
4742;SDS011;24293;48.154;7.748;2023-05-09T08:57:57;6.70;;;4.70;;
4742;SDS011;24293;48.154;7.748;2023-05-09T09:00:27;6.37;;;4.80;;
4742;SDS011;24293;48.154;7.748;2023-05-09T09:02:55;6.47;;;4.77;;
4742;SDS011;24293;48.154;7.748;2023-05-09T09:05:22;7.57;;;4.70;;
4742;SDS011;24293;48.154;7.748;2023-05-09T09:07:49;6.17;;;4.47;;
4742;SDS011;24293;48.154;7.748;2023-05-09T09:10:16;6.37;;;4.10;;
4742;SDS011;24293;48.154;7.748;2023-05-09T09:12:46;5.20;;;4.40;;
4742;SDS011;24293;48.154;7.748;2023-05-09T09:15:14;10.70;;;4.77;;
4742;SDS011;24293;48.154;7.748;2023-05-09T09:17:41;8.60;;;3.90;;
4742;SDS011;24293;48.154;7.748;2023-05-09T09:20:09;5.93;;;3.47;;
4742;SDS011;24293;48.154;7.748;2023-05-09T09:22:36;5.83;;;3.80;;
4742;SDS011;24293;48.154;7.748;2023-05-09T09:25:05;6.17;;;3.80;;
4742;SDS011;24293;48.154;7.748;2023-05-09T09:27:31;5.53;;;3.93;;
4742;SDS011;24293;48.154;7.748;2023-05-09T09:30:06;5.37;;;4.30;;
4742;SDS011;24293;48.154;7.748;2023-05-09T09:32:33;5.87;;;4.70;;
4742;SDS011;24293;48.154;7.748;2023-05-09T09:35:02;6.17;;;3.90;;
4742;SDS011;24293;48.154;7.748;2023-05-09T09:37:30;5.80;;;3.80;;
4742;SDS011;24293;48.154;7.748;2023-05-09T09:39:58;7.43;;;3.80;;
4742;SDS011;24293;48.154;7.748;2023-05-09T09:42:24;5.73;;;3.53;;
4742;SDS011;24293;48.154;7.748;2023-05-09T09:44:54;5.20;;;3.93;;
4742;SDS011;24293;48.154;7.748;2023-05-09T09:47:30;6.63;;;4.07;;
4742;SDS011;24293;48.154;7.748;2023-05-09T09:49:57;6.10;;;3.97;;
4742;SDS011;24293;48.154;7.748;2023-05-09T09:52:23;5.07;;;3.90;;
4742;SDS011;24293;48.154;7.748;2023-05-09T09:54:51;9.40;;;3.80;;
4742;SDS011;24293;48.154;7.748;2023-05-09T09:57:32;4.93;;;3.07;;
4742;SDS011;24293;48.154;7.748;2023-05-09T09:59:59;4.40;;;3.30;;
4742;SDS011;24293;48.154;7.748;2023-05-09T10:02:25;5.67;;;3.77;;
4742;SDS011;24293;48.154;7.748;2023-05-09T10:04:53;6.27;;;4.20;;
4742;SDS011;24293;48.154;7.748;2023-05-09T10:07:21;6.33;;;3.60;;
4742;SDS011;24293;48.154;7.748;2023-05-09T10:09:47;7.13;;;3.50;;
4742;SDS011;24293;48.154;7.748;2023-05-09T10:12:14;4.03;;;3.23;;
4742;SDS011;24293;48.154;7.748;2023-05-09T10:14:44;6.97;;;3.60;;
4742;SDS011;24293;48.154;7.748;2023-05-09T10:17:12;7.10;;;3.60;;
4742;SDS011;24293;48.154;7.748;2023-05-09T10:19:38;3.70;;;2.87;;
4742;SDS011;24293;48.154;7.748;2023-05-09T10:22:09;5.20;;;3.50;;
4742;SDS011;24293;48.154;7.748;2023-05-09T10:24:39;4.87;;;3.50;;
4742;SDS011;24293;48.154;7.748;2023-05-09T10:27:08;5.73;;;3.20;;
4742;SDS011;24293;48.154;7.748;2023-05-09T10:29:37;7.60;;;2.63;;
4742;SDS011;24293;48.154;7.748;2023-05-09T10:32:07;4.13;;;2.60;;
4742;SDS011;24293;48.154;7.748;2023-05-09T10:34:35;3.33;;;2.70;;
4742;SDS011;24293;48.154;7.748;2023-05-09T10:37:03;3.60;;;2.40;;
4742;SDS011;24293;48.154;7.748;2023-05-09T10:39:31;4.37;;;1.97;;
4742;SDS011;24293;48.154;7.748;2023-05-09T10:41:58;3.40;;;1.97;;
4742;SDS011;24293;48.154;7.748;2023-05-09T10:44:25;8.50;;;2.10;;
4742;SDS011;24293;48.154;7.748;2023-05-09T10:46:52;3.70;;;1.80;;
4742;SDS011;24293;48.154;7.748;2023-05-09T10:49:19;3.47;;;2.00;;
4742;SDS011;24293;48.154;7.748;2023-05-09T10:51:48;4.93;;;1.80;;
4742;SDS011;24293;48.154;7.748;2023-05-09T10:54:24;2.73;;;1.70;;
4742;SDS011;24293;48.154;7.748;2023-05-09T10:56:53;3.00;;;1.80;;
4742;SDS011;24293;48.154;7.748;2023-05-09T10:59:35;3.97;;;1.60;;
4742;SDS011;24293;48.154;7.748;2023-05-09T11:02:02;2.73;;;1.63;;
4742;SDS011;24293;48.154;7.748;2023-05-09T11:04:29;2.90;;;1.50;;
4742;SDS011;24293;48.154;7.748;2023-05-09T11:06:56;3.37;;;1.50;;
4742;SDS011;24293;48.154;7.748;2023-05-09T11:09:23;5.13;;;1.67;;
4742;SDS011;24293;48.154;7.748;2023-05-09T11:11:53;3.07;;;2.10;;
4742;SDS011;24293;48.154;7.748;2023-05-09T11:14:29;2.73;;;1.53;;
4742;SDS011;24293;48.154;7.748;2023-05-09T11:16:56;2.80;;;1.63;;
4742;SDS011;24293;48.154;7.748;2023-05-09T11:19:33;3.73;;;1.60;;
4742;SDS011;24293;48.154;7.748;2023-05-09T11:22:01;3.33;;;1.60;;
4742;SDS011;24293;48.154;7.748;2023-05-09T11:24:30;3.27;;;1.70;;
4742;SDS011;24293;48.154;7.748;2023-05-09T11:26:58;3.23;;;1.17;;
4742;SDS011;24293;48.154;7.748;2023-05-09T11:29:25;3.17;;;1.53;;
4742;SDS011;24293;48.154;7.748;2023-05-09T11:32:04;2.00;;;1.30;;
4742;SDS011;24293;48.154;7.748;2023-05-09T11:34:32;1.93;;;1.30;;
4742;SDS011;24293;48.154;7.748;2023-05-09T11:37:05;2.70;;;1.30;;
4742;SDS011;24293;48.154;7.748;2023-05-09T11:39:32;2.50;;;1.57;;
4742;SDS011;24293;48.154;7.748;2023-05-09T11:42:00;2.57;;;1.53;;
4742;SDS011;24293;48.154;7.748;2023-05-09T11:44:27;3.20;;;1.70;;
4742;SDS011;24293;48.154;7.748;2023-05-09T11:46:55;2.00;;;1.43;;
4742;SDS011;24293;48.154;7.748;2023-05-09T11:49:22;2.97;;;1.67;;
4742;SDS011;24293;48.154;7.748;2023-05-09T11:51:49;3.20;;;1.40;;
4742;SDS011;24293;48.154;7.748;2023-05-09T11:54:15;5.40;;;2.03;;
4742;SDS011;24293;48.154;7.748;2023-05-09T11:56:42;2.63;;;1.60;;
4742;SDS011;24293;48.154;7.748;2023-05-09T11:59:09;3.00;;;1.47;;
4742;SDS011;24293;48.154;7.748;2023-05-09T12:01:38;3.00;;;1.70;;
4742;SDS011;24293;48.154;7.748;2023-05-09T12:04:05;4.37;;;1.90;;
4742;SDS011;24293;48.154;7.748;2023-05-09T12:06:32;3.00;;;1.97;;
4742;SDS011;24293;48.154;7.748;2023-05-09T12:08:58;3.50;;;1.63;;
4742;SDS011;24293;48.154;7.748;2023-05-09T12:11:25;2.50;;;1.37;;
4742;SDS011;24293;48.154;7.748;2023-05-09T12:13:52;4.10;;;1.77;;
4742;SDS011;24293;48.154;7.748;2023-05-09T12:16:19;2.70;;;1.23;;
4742;SDS011;24293;48.154;7.748;2023-05-09T12:18:47;3.13;;;1.50;;
4742;SDS011;24293;48.154;7.748;2023-05-09T12:21:14;3.10;;;1.40;;
4742;SDS011;24293;48.154;7.748;2023-05-09T12:23:40;2.60;;;1.40;;
4742;SDS011;24293;48.154;7.748;2023-05-09T12:26:07;2.30;;;1.30;;
4742;SDS011;24293;48.154;7.748;2023-05-09T12:28:33;2.73;;;1.20;;
4742;SDS011;24293;48.154;7.748;2023-05-09T12:31:00;2.47;;;1.27;;
4742;SDS011;24293;48.154;7.748;2023-05-09T12:33:28;4.47;;;1.30;;
4742;SDS011;24293;48.154;7.748;2023-05-09T12:36:02;5.27;;;1.57;;
4742;SDS011;24293;48.154;7.748;2023-05-09T12:38:29;10.23;;;2.40;;
4742;SDS011;24293;48.154;7.748;2023-05-09T12:41:05;1.53;;;1.10;;
4742;SDS011;24293;48.154;7.748;2023-05-09T12:43:32;1.83;;;1.30;;
4742;SDS011;24293;48.154;7.748;2023-05-09T12:45:59;6.23;;;1.70;;
4742;SDS011;24293;48.154;7.748;2023-05-09T12:48:26;3.17;;;1.60;;
4742;SDS011;24293;48.154;7.748;2023-05-09T12:50:54;3.10;;;1.67;;
4742;SDS011;24293;48.154;7.748;2023-05-09T12:53:24;2.37;;;1.30;;
4742;SDS011;24293;48.154;7.748;2023-05-09T12:55:53;2.83;;;1.20;;
4742;SDS011;24293;48.154;7.748;2023-05-09T12:58:19;2.20;;;1.43;;
4742;SDS011;24293;48.154;7.748;2023-05-09T13:00:46;4.70;;;1.27;;
4742;SDS011;24293;48.154;7.748;2023-05-09T13:03:19;2.67;;;1.27;;
4742;SDS011;24293;48.154;7.748;2023-05-09T13:05:54;2.30;;;1.30;;
4742;SDS011;24293;48.154;7.748;2023-05-09T13:08:21;5.60;;;1.80;;
4742;SDS011;24293;48.154;7.748;2023-05-09T13:10:47;3.20;;;1.50;;
4742;SDS011;24293;48.154;7.748;2023-05-09T13:13:14;2.90;;;1.67;;
4742;SDS011;24293;48.154;7.748;2023-05-09T13:15:41;3.80;;;1.80;;
4742;SDS011;24293;48.154;7.748;2023-05-09T13:18:08;2.77;;;1.50;;
4742;SDS011;24293;48.154;7.748;2023-05-09T13:20:34;2.57;;;1.60;;
4742;SDS011;24293;48.154;7.748;2023-05-09T13:23:02;2.13;;;1.37;;
4742;SDS011;24293;48.154;7.748;2023-05-09T13:25:29;2.93;;;1.60;;
4742;SDS011;24293;48.154;7.748;2023-05-09T13:27:55;5.83;;;1.50;;
4742;SDS011;24293;48.154;7.748;2023-05-09T13:30:22;2.33;;;1.70;;
4742;SDS011;24293;48.154;7.748;2023-05-09T13:32:48;3.40;;;1.30;;
4742;SDS011;24293;48.154;7.748;2023-05-09T13:35:15;2.70;;;1.40;;
4742;SDS011;24293;48.154;7.748;2023-05-09T13:37:42;4.50;;;1.43;;
4742;SDS011;24293;48.154;7.748;2023-05-09T13:40:10;2.77;;;1.57;;
4742;SDS011;24293;48.154;7.748;2023-05-09T13:42:37;2.97;;;1.80;;
4742;SDS011;24293;48.154;7.748;2023-05-09T13:45:04;5.77;;;1.93;;
4742;SDS011;24293;48.154;7.748;2023-05-09T13:47:31;3.03;;;1.73;;
4742;SDS011;24293;48.154;7.748;2023-05-09T13:49:57;2.97;;;1.67;;
4742;SDS011;24293;48.154;7.748;2023-05-09T13:52:24;3.27;;;1.70;;
4742;SDS011;24293;48.154;7.748;2023-05-09T13:54:50;3.63;;;1.73;;
4742;SDS011;24293;48.154;7.748;2023-05-09T13:57:18;4.00;;;2.00;;
4742;SDS011;24293;48.154;7.748;2023-05-09T13:59:45;3.00;;;1.83;;
4742;SDS011;24293;48.154;7.748;2023-05-09T14:02:11;3.13;;;1.80;;
4742;SDS011;24293;48.154;7.748;2023-05-09T14:04:37;2.50;;;1.90;;
4742;SDS011;24293;48.154;7.748;2023-05-09T14:07:04;3.40;;;2.13;;
4742;SDS011;24293;48.154;7.748;2023-05-09T14:09:30;4.37;;;2.33;;
4742;SDS011;24293;48.154;7.748;2023-05-09T14:12:04;4.87;;;2.20;;
4742;SDS011;24293;48.154;7.748;2023-05-09T14:14:32;3.53;;;2.10;;
4742;SDS011;24293;48.154;7.748;2023-05-09T14:16:58;2.90;;;1.73;;
4742;SDS011;24293;48.154;7.748;2023-05-09T14:19:25;2.87;;;2.13;;
4742;SDS011;24293;48.154;7.748;2023-05-09T14:21:52;2.97;;;1.97;;
4742;SDS011;24293;48.154;7.748;2023-05-09T14:24:18;4.20;;;2.20;;
4742;SDS011;24293;48.154;7.748;2023-05-09T14:26:45;4.47;;;2.30;;
4742;SDS011;24293;48.154;7.748;2023-05-09T14:29:11;3.53;;;2.67;;
4742;SDS011;24293;48.154;7.748;2023-05-09T14:31:39;5.20;;;2.77;;
4742;SDS011;24293;48.154;7.748;2023-05-09T14:34:06;4.13;;;2.93;;
4742;SDS011;24293;48.154;7.748;2023-05-09T14:36:33;6.80;;;3.20;;
4742;SDS011;24293;48.154;7.748;2023-05-09T14:38:59;3.67;;;3.00;;
4742;SDS011;24293;48.154;7.748;2023-05-09T14:41:26;4.90;;;3.10;;
4742;SDS011;24293;48.154;7.748;2023-05-09T14:43:52;5.07;;;3.57;;
4742;SDS011;24293;48.154;7.748;2023-05-09T14:46:19;5.53;;;3.60;;
4742;SDS011;24293;48.154;7.748;2023-05-09T14:48:50;9.27;;;3.40;;
4742;SDS011;24293;48.154;7.748;2023-05-09T14:51:16;3.30;;;2.57;;
4742;SDS011;24293;48.154;7.748;2023-05-09T14:53:43;4.83;;;2.67;;
4742;SDS011;24293;48.154;7.748;2023-05-09T14:56:10;4.03;;;2.80;;
4742;SDS011;24293;48.154;7.748;2023-05-09T14:58:37;5.53;;;2.77;;
4742;SDS011;24293;48.154;7.748;2023-05-09T15:01:03;3.63;;;2.40;;